Time;durP1;ratioP1;P1;durP2;ratioP2;P2;SDS_P1;SDS_P2;PMS_P1;PMS_P2;Temp;Humidity;BMP_temperature;BMP_pressure;BME280_temperature;BME280_humidity;BME280_pressure;Samples;Min_cycle;Max_cycle;Signal;HPM_P1;HPM_P2
2021/08/13 00:01:14;;;;;;;9.75;6.65;;;;;;;;;;4929146;29;20106;-78
2021/08/13 00:03:41;;;;;;;14.80;6.72;;;;;;;;;;4928766;29;20043;-78
2021/08/13 00:06:08;;;;;;;11.73;6.70;;;;;;;;;;4944244;29;20075;-78
2021/08/13 00:08:36;;;;;;;8.98;7.07;;;;;;;;;;4936504;29;20063;-78
2021/08/13 00:11:03;;;;;;;10.32;6.30;;;;;;;;;;4928931;29;20490;-78
2021/08/13 00:13:30;;;;;;;9.45;6.45;;;;;;;;;;4923444;29;20047;-78
2021/08/13 00:15:57;;;;;;;16.33;7.50;;;;;;;;;;4927653;29;20131;-77
2021/08/13 00:18:25;;;;;;;10.35;6.80;;;;;;;;;;4927314;29;20047;-78
2021/08/13 00:20:52;;;;;;;9.07;7.25;;;;;;;;;;4928828;29;20078;-78
2021/08/13 00:23:19;;;;;;;13.38;8.35;;;;;;;;;;4928022;29;20142;-78
2021/08/13 00:25:47;;;;;;;10.70;7.43;;;;;;;;;;4917288;29;20040;-78
2021/08/13 00:28:14;;;;;;;10.90;6.82;;;;;;;;;;4911238;29;20055;-78
2021/08/13 00:30:41;;;;;;;13.68;6.80;;;;;;;;;;4925053;29;20135;-78
2021/08/13 00:33:08;;;;;;;13.57;6.88;;;;;;;;;;4928464;29;20971;-78
2021/08/13 00:35:35;;;;;;;11.27;7.28;;;;;;;;;;4942405;29;20130;-78
2021/08/13 00:38:02;;;;;;;11.73;7.28;;;;;;;;;;4928865;29;20155;-77
2021/08/13 00:40:30;;;;;;;12.63;6.80;;;;;;;;;;4927860;29;20055;-78
2021/08/13 00:42:57;;;;;;;9.07;7.10;;;;;;;;;;4931904;29;20086;-77
2021/08/13 00:45:24;;;;;;;11.93;7.22;;;;;;;;;;4931682;29;20087;-77
2021/08/13 00:47:51;;;;;;;11.75;7.07;;;;;;;;;;4930013;29;20111;-77
2021/08/13 00:50:19;;;;;;;9.30;6.70;;;;;;;;;;4930898;29;20158;-78
2021/08/13 00:52:46;;;;;;;11.95;7.78;;;;;;;;;;4931939;29;20143;-79
2021/08/13 00:55:14;;;;;;;16.77;7.78;;;;;;;;;;4933199;29;20055;-78
2021/08/13 00:57:41;;;;;;;10.13;7.57;;;;;;;;;;4915935;29;20048;-79
2021/08/13 01:00:08;;;;;;;12.00;7.40;;;;;;;;;;4929849;29;20572;-79
2021/08/13 01:02:35;;;;;;;11.85;7.55;;;;;;;;;;4930085;29;20159;-79
2021/08/13 01:05:03;;;;;;;13.40;8.07;;;;;;;;;;4932239;29;20055;-79
2021/08/13 01:07:31;;;;;;;12.23;7.80;;;;;;;;;;4932991;29;20134;-79
2021/08/13 01:09:58;;;;;;;11.25;6.97;;;;;;;;;;4930837;29;20134;-79
2021/08/13 01:12:37;;;;;;;11.35;7.50;;;;;;;;;;4929080;29;20066;-79
2021/08/13 01:15:08;;;;;;;12.23;7.97;;;;;;;;;;4915660;29;20091;-79
2021/08/13 01:17:38;;;;;;;14.30;7.90;;;;;;;;;;4914666;29;20104;-79
2021/08/13 01:20:10;;;;;;;13.32;8.13;;;;;;;;;;4930894;29;20099;-79
2021/08/13 01:22:51;;;;;;;19.50;8.43;;;;;;;;;;4923455;29;20138;-79
2021/08/13 01:25:21;;;;;;;11.70;7.60;;;;;;;;;;4931831;29;20144;-79
2021/08/13 01:27:49;;;;;;;11.07;8.27;;;;;;;;;;4928651;29;20054;-79
2021/08/13 01:30:18;;;;;;;15.35;8.60;;;;;;;;;;4930301;29;20119;-79
2021/08/13 01:32:45;;;;;;;12.10;8.00;;;;;;;;;;4932375;29;20063;-79
2021/08/13 01:35:15;;;;;;;11.45;8.32;;;;;;;;;;4933405;29;20489;-79
2021/08/13 01:37:44;;;;;;;13.25;9.05;;;;;;;;;;4930784;29;20146;-80
2021/08/13 01:40:12;;;;;;;12.35;7.63;;;;;;;;;;4927724;29;20058;-79
2021/08/13 01:42:40;;;;;;;16.63;8.30;;;;;;;;;;4932169;29;20130;-79
2021/08/13 01:45:08;;;;;;;14.82;8.57;;;;;;;;;;4933091;29;20094;-80
2021/08/13 01:47:36;;;;;;;17.33;9.38;;;;;;;;;;4925651;29;20058;-79
2021/08/13 01:50:04;;;;;;;10.15;7.93;;;;;;;;;;4945825;29;20528;-79
2021/08/13 01:52:32;;;;;;;16.77;8.27;;;;;;;;;;4928806;29;20059;-78
2021/08/13 01:54:59;;;;;;;13.27;8.35;;;;;;;;;;4932804;29;20051;-79
2021/08/13 01:57:27;;;;;;;10.88;7.78;;;;;;;;;;4931827;29;20509;-79
2021/08/13 01:59:54;;;;;;;12.80;7.85;;;;;;;;;;4915955;29;20492;-79
2021/08/13 02:02:21;;;;;;;13.15;8.98;;;;;;;;;;4931048;29;20163;-79
2021/08/13 02:04:51;;;;;;;10.98;8.35;;;;;;;;;;4932114;29;20054;-79
2021/08/13 02:07:20;;;;;;;13.38;8.45;;;;;;;;;;4931976;29;20134;-78
2021/08/13 02:09:48;;;;;;;13.18;9.48;;;;;;;;;;4931659;29;20138;-78
2021/08/13 02:12:15;;;;;;;16.15;9.18;;;;;;;;;;4931825;29;20102;-79
2021/08/13 02:14:42;;;;;;;12.77;7.85;;;;;;;;;;4931270;29;20797;-78
2021/08/13 02:17:13;;;;;;;15.85;8.43;;;;;;;;;;4932470;29;20492;-78
2021/08/13 02:19:47;;;;;;;17.08;9.00;;;;;;;;;;4929947;29;20131;-79
2021/08/13 02:22:15;;;;;;;14.48;9.73;;;;;;;;;;4929780;29;20131;-79
2021/08/13 02:24:42;;;;;;;10.88;7.97;;;;;;;;;;4931185;29;20054;-79
2021/08/13 02:27:09;;;;;;;12.98;8.70;;;;;;;;;;4919209;29;20058;-80
2021/08/13 02:29:36;;;;;;;16.00;9.35;;;;;;;;;;4927503;29;20139;-79
2021/08/13 02:32:03;;;;;;;12.00;8.30;;;;;;;;;;4931640;29;20106;-79
2021/08/13 02:34:31;;;;;;;14.85;9.15;;;;;;;;;;4930270;29;20060;-79
2021/08/13 02:37:08;;;;;;;15.95;8.88;;;;;;;;;;4932356;29;20130;-79
2021/08/13 02:39:40;;;;;;;18.25;9.10;;;;;;;;;;4930058;29;20107;-79
2021/08/13 02:42:08;;;;;;;13.32;8.70;;;;;;;;;;4931534;29;20058;-80
2021/08/13 02:44:36;;;;;;;16.60;10.00;;;;;;;;;;4930083;29;20134;-79
2021/08/13 02:47:06;;;;;;;19.30;9.68;;;;;;;;;;4931676;29;20079;-79
2021/08/13 02:49:36;;;;;;;14.85;9.50;;;;;;;;;;4945786;28;20111;-79
2021/08/13 02:52:05;;;;;;;18.67;9.73;;;;;;;;;;4931727;29;20090;-79
2021/08/13 02:54:34;;;;;;;18.85;8.93;;;;;;;;;;4930683;29;20162;-79
2021/08/13 02:57:03;;;;;;;16.35;10.07;;;;;;;;;;4931565;29;20083;-79
2021/08/13 02:59:32;;;;;;;15.05;9.65;;;;;;;;;;4915453;29;20051;-79
2021/08/13 03:02:00;;;;;;;18.83;10.02;;;;;;;;;;4930239;29;20067;-79
2021/08/13 03:04:30;;;;;;;16.25;10.20;;;;;;;;;;4928555;29;20131;-79
2021/08/13 03:06:57;;;;;;;20.70;9.57;;;;;;;;;;4930172;29;20166;-79
2021/08/13 03:09:26;;;;;;;13.93;9.45;;;;;;;;;;4929830;29;20083;-79
2021/08/13 03:11:54;;;;;;;15.27;10.38;;;;;;;;;;4930242;29;20584;-79
2021/08/13 03:14:21;;;;;;;15.27;9.60;;;;;;;;;;4927747;29;20163;-79
2021/08/13 03:16:49;;;;;;;13.98;9.70;;;;;;;;;;4931600;29;20059;-79
2021/08/13 03:19:16;;;;;;;18.40;9.48;;;;;;;;;;4928153;29;20138;-79
2021/08/13 03:21:44;;;;;;;13.48;9.75;;;;;;;;;;4930427;29;20760;-79
2021/08/13 03:24:13;;;;;;;15.48;10.25;;;;;;;;;;4926686;29;20057;-80
2021/08/13 03:26:40;;;;;;;15.48;9.70;;;;;;;;;;4928932;29;20058;-79
2021/08/13 03:29:08;;;;;;;16.95;9.90;;;;;;;;;;4925790;29;20056;-79
2021/08/13 03:31:38;;;;;;;13.93;10.07;;;;;;;;;;4930737;29;20155;-79
2021/08/13 03:34:07;;;;;;;20.40;9.93;;;;;;;;;;4929638;29;20061;-80
2021/08/13 03:36:35;;;;;;;20.02;10.43;;;;;;;;;;4924466;29;20139;-79
2021/08/13 03:39:03;;;;;;;13.73;9.32;;;;;;;;;;4925373;29;20619;-79
2021/08/13 03:41:30;;;;;;;14.32;9.30;;;;;;;;;;4921307;29;20040;-79
2021/08/13 03:43:57;;;;;;;17.42;9.77;;;;;;;;;;4918902;29;20916;-79
2021/08/13 03:46:24;;;;;;;14.05;9.65;;;;;;;;;;4929176;29;20567;-79
2021/08/13 03:48:52;;;;;;;20.15;10.38;;;;;;;;;;4927984;29;20052;-79
2021/08/13 03:51:19;;;;;;;16.63;10.07;;;;;;;;;;4939505;29;20083;-79
2021/08/13 03:53:46;;;;;;;14.95;9.65;;;;;;;;;;4929086;29;20130;-79
2021/08/13 03:56:14;;;;;;;17.85;9.98;;;;;;;;;;4928794;29;20477;-79
2021/08/13 03:58:41;;;;;;;16.98;10.60;;;;;;;;;;4926297;29;20090;-79
2021/08/13 04:01:09;;;;;;;16.08;9.65;;;;;;;;;;4929637;29;20099;-79
2021/08/13 04:03:37;;;;;;;17.17;11.05;;;;;;;;;;4943904;29;20126;-79
2021/08/13 04:06:04;;;;;;;18.27;10.32;;;;;;;;;;4928360;29;20581;-79
2021/08/13 04:08:31;;;;;;;15.18;9.98;;;;;;;;;;4926428;29;20052;-79
2021/08/13 04:10:58;;;;;;;17.58;9.90;;;;;;;;;;4929930;29;20134;-79
2021/08/13 04:13:26;;;;;;;22.88;10.23;;;;;;;;;;4925961;29;20048;-79
2021/08/13 04:15:54;;;;;;;18.05;10.05;;;;;;;;;;4911338;29;20075;-79
2021/08/13 04:18:22;;;;;;;22.92;10.57;;;;;;;;;;4923391;29;20048;-79
2021/08/13 04:20:49;;;;;;;18.25;9.45;;;;;;;;;;4928695;29;20130;-79
2021/08/13 04:23:16;;;;;;;19.77;11.73;;;;;;;;;;4925594;29;20047;-79
2021/08/13 04:25:44;;;;;;;16.80;10.23;;;;;;;;;;4929613;29;20059;-79
2021/08/13 04:28:11;;;;;;;20.00;10.27;;;;;;;;;;4928771;29;20083;-79
2021/08/13 04:30:38;;;;;;;19.90;10.40;;;;;;;;;;4927762;29;20463;-79
2021/08/13 04:33:10;;;;;;;17.30;10.73;;;;;;;;;;4942783;29;20043;-79
2021/08/13 04:35:37;;;;;;;15.60;10.55;;;;;;;;;;4904626;29;20062;-79
2021/08/13 04:38:05;;;;;;;17.50;10.73;;;;;;;;;;4928259;29;21002;-79
2021/08/13 04:40:32;;;;;;;17.42;10.38;;;;;;;;;;4927406;29;20044;-79
2021/08/13 04:43:01;;;;;;;17.17;10.40;;;;;;;;;;4928890;29;20138;-79
2021/08/13 04:45:28;;;;;;;14.65;10.07;;;;;;;;;;4920980;29;20051;-79
2021/08/13 04:47:55;;;;;;;17.65;10.40;;;;;;;;;;4925504;29;20052;-81
2021/08/13 04:50:23;;;;;;;18.45;11.20;;;;;;;;;;4915207;29;20618;-81
2021/08/13 04:52:51;;;;;;;21.95;11.00;;;;;;;;;;4929394;29;20119;-80
2021/08/13 04:55:20;;;;;;;16.95;10.35;;;;;;;;;;4926476;29;20106;-81
2021/08/13 04:57:51;;;;;;;19.08;10.88;;;;;;;;;;4928884;29;20079;-83
2021/08/13 05:00:18;;;;;;;28.10;11.40;;;;;;;;;;4930312;29;20103;-80
2021/08/13 05:02:46;;;;;;;20.85;10.55;;;;;;;;;;4930727;29;20823;-79
2021/08/13 05:05:14;;;;;;;20.25;10.75;;;;;;;;;;4930095;29;20052;-81
2021/08/13 05:07:41;;;;;;;19.60;11.60;;;;;;;;;;4920655;29;20055;-77
2021/08/13 05:10:13;;;;;;;21.00;10.98;;;;;;;;;;4921218;29;20138;-77
2021/08/13 05:12:40;;;;;;;14.88;10.32;;;;;;;;;;4943717;28;20143;-78
2021/08/13 05:15:08;;;;;;;20.08;11.63;;;;;;;;;;4931747;29;20083;-85
2021/08/13 05:17:35;;;;;;;21.58;10.73;;;;;;;;;;4933677;29;20047;-85
2021/08/13 05:20:03;;;;;;;18.48;10.70;;;;;;;;;;4899286;29;20091;-86
2021/08/13 05:22:34;;;;;;;19.63;11.00;;;;;;;;;;4917169;29;20079;-85
2021/08/13 05:25:06;;;;;;;17.40;10.55;;;;;;;;;;4911867;29;20052;-83
2021/08/13 05:27:33;;;;;;;14.70;10.15;;;;;;;;;;4932713;29;20079;-82
2021/08/13 05:30:00;;;;;;;19.55;10.82;;;;;;;;;;4919223;29;20075;-85
2021/08/13 05:32:27;;;;;;;16.92;10.85;;;;;;;;;;4918050;29;20067;-87
2021/08/13 05:34:54;;;;;;;17.42;11.63;;;;;;;;;;4932051;29;20050;-87
2021/08/13 05:37:22;;;;;;;20.13;11.82;;;;;;;;;;4916186;29;20110;-80
2021/08/13 05:39:49;;;;;;;21.20;11.00;;;;;;;;;;4930830;29;20138;-79
2021/08/13 05:42:16;;;;;;;21.05;11.88;;;;;;;;;;4931473;29;20083;-79
2021/08/13 05:44:43;;;;;;;16.20;10.60;;;;;;;;;;4916125;29;20151;-80
2021/08/13 05:47:10;;;;;;;20.05;11.48;;;;;;;;;;4932990;29;20048;-80
2021/08/13 05:49:37;;;;;;;17.85;10.82;;;;;;;;;;4932188;29;20767;-79
2021/08/13 05:52:05;;;;;;;15.82;11.15;;;;;;;;;;4933530;29;20135;-79
2021/08/13 05:54:32;;;;;;;17.10;11.25;;;;;;;;;;4928782;29;20075;-79
2021/08/13 05:56:59;;;;;;;15.82;10.85;;;;;;;;;;4934646;29;21008;-79
2021/08/13 05:59:26;;;;;;;18.33;11.13;;;;;;;;;;4935151;29;20102;-79
2021/08/13 06:01:53;;;;;;;21.23;10.85;;;;;;;;;;4935137;29;20052;-80
2021/08/13 06:04:21;;;;;;;16.90;10.40;;;;;;;;;;4931743;29;20052;-80
2021/08/13 06:06:48;;;;;;;24.02;11.30;;;;;;;;;;4933586;29;20179;-80
2021/08/13 06:09:15;;;;;;;16.02;11.00;;;;;;;;;;4932020;29;20054;-80
2021/08/13 06:11:42;;;;;;;17.70;11.23;;;;;;;;;;4932968;29;20124;-82
2021/08/13 06:14:09;;;;;;;19.23;10.93;;;;;;;;;;4932239;29;20103;-80
2021/08/13 06:16:36;;;;;;;18.65;11.02;;;;;;;;;;4933162;29;20079;-80
2021/08/13 06:19:04;;;;;;;16.40;11.45;;;;;;;;;;4931650;29;20047;-80
2021/08/13 06:21:31;;;;;;;28.38;12.38;;;;;;;;;;4933047;29;20545;-80
2021/08/13 06:23:58;;;;;;;15.20;11.52;;;;;;;;;;4931134;29;20063;-79
2021/08/13 06:26:26;;;;;;;18.80;11.55;;;;;;;;;;4930139;29;20167;-80
2021/08/13 06:28:54;;;;;;;20.38;11.27;;;;;;;;;;4931168;29;20066;-79
2021/08/13 06:31:22;;;;;;;18.10;11.52;;;;;;;;;;4946528;29;20091;-80
2021/08/13 06:33:49;;;;;;;18.33;11.88;;;;;;;;;;4931356;29;20166;-80
2021/08/13 06:36:18;;;;;;;17.23;10.65;;;;;;;;;;4932523;29;20736;-80
2021/08/13 06:38:45;;;;;;;16.58;10.98;;;;;;;;;;4930984;29;20115;-80
2021/08/13 06:41:13;;;;;;;18.00;11.15;;;;;;;;;;4915257;29;20083;-80
2021/08/13 06:43:40;;;;;;;19.35;11.30;;;;;;;;;;4932846;29;20052;-77
2021/08/13 06:46:07;;;;;;;19.90;11.60;;;;;;;;;;4935757;29;20146;-77
2021/08/13 06:48:34;;;;;;;16.55;11.27;;;;;;;;;;4933013;29;20051;-78
2021/08/13 06:51:04;;;;;;;17.65;11.35;;;;;;;;;;4932283;29;20508;-77
2021/08/13 06:53:31;;;;;;;18.90;10.50;;;;;;;;;;4930156;29;20105;-77
2021/08/13 06:55:58;;;;;;;20.10;12.57;;;;;;;;;;4930993;29;20094;-77
2021/08/13 06:58:25;;;;;;;15.98;11.32;;;;;;;;;;4931824;29;20147;-77
2021/08/13 07:00:52;;;;;;;17.70;12.07;;;;;;;;;;4914619;29;20229;-78
2021/08/13 07:03:20;;;;;;;18.85;11.63;;;;;;;;;;4930024;29;20052;-79
2021/08/13 07:05:47;;;;;;;18.67;10.85;;;;;;;;;;4929073;29;20047;-77
2021/08/13 07:08:14;;;;;;;16.52;10.90;;;;;;;;;;4928919;29;20047;-78
2021/08/13 07:10:42;;;;;;;15.27;11.10;;;;;;;;;;4925833;29;20056;-78
2021/08/13 07:13:09;;;;;;;25.38;11.00;;;;;;;;;;4929892;29;20055;-78
2021/08/13 07:15:36;;;;;;;21.88;11.52;;;;;;;;;;4929635;29;20181;-78
2021/08/13 07:18:03;;;;;;;18.70;11.70;;;;;;;;;;4918393;29;20167;-79
2021/08/13 07:20:31;;;;;;;18.00;9.85;;;;;;;;;;4913931;29;20118;-79
2021/08/13 07:22:59;;;;;;;20.27;10.88;;;;;;;;;;4930627;29;20149;-79
2021/08/13 07:25:26;;;;;;;22.98;10.45;;;;;;;;;;4931211;29;20051;-79
2021/08/13 07:27:54;;;;;;;18.52;10.60;;;;;;;;;;4931357;29;20098;-80
2021/08/13 07:30:21;;;;;;;21.10;9.80;;;;;;;;;;4931372;29;20547;-79
2021/08/13 07:32:49;;;;;;;17.98;10.90;;;;;;;;;;4930690;29;20345;-80
2021/08/13 07:35:16;;;;;;;25.45;10.85;;;;;;;;;;4931220;29;20059;-79
2021/08/13 07:37:43;;;;;;;19.73;10.77;;;;;;;;;;4929471;29;20058;-79
2021/08/13 07:40:11;;;;;;;16.92;9.60;;;;;;;;;;4931391;29;20893;-80
2021/08/13 07:42:40;;;;;;;15.57;9.63;;;;;;;;;;4944873;28;20082;-80
2021/08/13 07:45:08;;;;;;;13.55;9.82;;;;;;;;;;4932170;29;20630;-79
2021/08/13 07:47:35;;;;;;;14.02;9.60;;;;;;;;;;4931613;29;20135;-80
2021/08/13 07:50:06;;;;;;;16.63;9.68;;;;;;;;;;4913654;29;20079;-80
2021/08/13 07:52:33;;;;;;;16.52;9.70;;;;;;;;;;4929187;29;20142;-79
2021/08/13 07:55:01;;;;;;;12.10;9.35;;;;;;;;;;4931797;29;20134;-81
2021/08/13 07:57:28;;;;;;;15.13;9.40;;;;;;;;;;4927880;29;20082;-80
2021/08/13 07:59:55;;;;;;;18.13;9.18;;;;;;;;;;4947052;29;20220;-80
2021/08/13 08:02:22;;;;;;;16.90;9.80;;;;;;;;;;4930529;29;20075;-79
2021/08/13 08:04:50;;;;;;;14.98;10.38;;;;;;;;;;4931075;29;20542;-79
2021/08/13 08:07:17;;;;;;;15.65;9.52;;;;;;;;;;4930640;29;20079;-79
2021/08/13 08:09:44;;;;;;;16.10;10.35;;;;;;;;;;4926624;29;20060;-79
2021/08/13 08:12:11;;;;;;;17.40;10.05;;;;;;;;;;4913197;29;20102;-80
2021/08/13 08:14:39;;;;;;;13.30;9.30;;;;;;;;;;4930948;29;20104;-79
2021/08/13 08:17:06;;;;;;;13.73;9.32;;;;;;;;;;4924648;29;20055;-80
2021/08/13 08:19:33;;;;;;;12.73;9.23;;;;;;;;;;4931512;29;20393;-80
2021/08/13 08:22:00;;;;;;;16.80;9.23;;;;;;;;;;4931391;29;20110;-80
2021/08/13 08:24:28;;;;;;;18.40;9.48;;;;;;;;;;4930222;29;20086;-80
2021/08/13 08:26:55;;;;;;;18.23;10.00;;;;;;;;;;4921054;29;20079;-80
2021/08/13 08:29:23;;;;;;;15.18;10.30;;;;;;;;;;4945679;29;20047;-80
2021/08/13 08:31:50;;;;;;;14.95;8.40;;;;;;;;;;4930650;29;20151;-80
2021/08/13 08:34:17;;;;;;;12.50;8.75;;;;;;;;;;4931459;29;20051;-80
2021/08/13 08:36:44;;;;;;;16.73;8.27;;;;;;;;;;4930750;29;20075;-80
2021/08/13 08:39:12;;;;;;;13.43;8.68;;;;;;;;;;4931192;29;20107;-80
2021/08/13 08:41:39;;;;;;;14.05;7.80;;;;;;;;;;4929979;29;20046;-80
2021/08/13 08:44:06;;;;;;;13.85;8.65;;;;;;;;;;4924052;29;20102;-80
2021/08/13 08:46:33;;;;;;;13.82;7.60;;;;;;;;;;4923788;29;20067;-80
2021/08/13 08:49:02;;;;;;;15.45;7.25;;;;;;;;;;4925859;29;20094;-80
2021/08/13 08:51:31;;;;;;;14.10;8.38;;;;;;;;;;4921101;29;20057;-80
2021/08/13 08:53:59;;;;;;;12.82;7.10;;;;;;;;;;4921639;29;20071;-80
2021/08/13 08:56:27;;;;;;;13.32;8.45;;;;;;;;;;4930751;29;20055;-80
2021/08/13 08:58:54;;;;;;;12.10;7.78;;;;;;;;;;4913855;29;20051;-80
2021/08/13 09:01:22;;;;;;;13.23;6.50;;;;;;;;;;4931347;29;20106;-80
2021/08/13 09:03:50;;;;;;;9.95;6.80;;;;;;;;;;4933108;29;20139;-80
2021/08/13 09:06:17;;;;;;;9.27;6.75;;;;;;;;;;4934734;29;20138;-80
2021/08/13 09:08:45;;;;;;;11.60;6.30;;;;;;;;;;4917686;29;20160;-80
2021/08/13 09:11:12;;;;;;;9.95;6.95;;;;;;;;;;4933748;29;20067;-80
2021/08/13 09:13:40;;;;;;;9.18;6.30;;;;;;;;;;4916820;29;20055;-80
2021/08/13 09:16:10;;;;;;;10.93;6.18;;;;;;;;;;4933055;29;20151;-80
2021/08/13 09:18:38;;;;;;;12.52;6.53;;;;;;;;;;4934182;29;20591;-80
2021/08/13 09:21:05;;;;;;;9.95;5.85;;;;;;;;;;4927863;29;20116;-80
2021/08/13 09:23:39;;;;;;;12.80;5.93;;;;;;;;;;4918640;29;20126;-80
2021/08/13 09:26:06;;;;;;;12.60;6.78;;;;;;;;;;4921986;29;20123;-80
2021/08/13 09:28:40;;;;;;;10.38;6.45;;;;;;;;;;4934239;29;20083;-80
2021/08/13 09:31:18;;;;;;;12.90;5.93;;;;;;;;;;4934539;29;20051;-80
2021/08/13 09:33:48;;;;;;;8.80;5.60;;;;;;;;;;4905975;29;20540;-81
2021/08/13 09:36:16;;;;;;;10.70;6.18;;;;;;;;;;4934347;29;20496;-80
2021/08/13 09:38:44;;;;;;;8.85;6.03;;;;;;;;;;4926036;29;20560;-80
2021/08/13 09:41:13;;;;;;;9.68;6.07;;;;;;;;;;4923101;29;20060;-80
2021/08/13 09:44:00;;;;;;;7.93;5.40;;;;;;;;;;4933817;29;20107;-80
2021/08/13 09:46:29;;;;;;;13.20;5.90;;;;;;;;;;4914592;29;20090;-80
2021/08/13 09:49:13;;;;;;;11.40;6.93;;;;;;;;;;4924678;29;20087;-80
2021/08/13 09:51:41;;;;;;;13.02;6.65;;;;;;;;;;4920531;29;20055;-81
2021/08/13 09:54:09;;;;;;;9.88;6.40;;;;;;;;;;4928102;29;20732;-80
2021/08/13 09:56:38;;;;;;;8.93;6.50;;;;;;;;;;4941797;29;20167;-80
2021/08/13 09:59:08;;;;;;;7.88;6.32;;;;;;;;;;4932596;29;20130;-80
2021/08/13 10:01:40;;;;;;;17.42;8.27;;;;;;;;;;4932577;29;20055;-80
2021/08/13 10:04:08;;;;;;;12.80;6.80;;;;;;;;;;4933216;29;20047;-81
2021/08/13 10:06:36;;;;;;;12.80;6.38;;;;;;;;;;4931965;29;20534;-80
2021/08/13 10:09:04;;;;;;;9.55;6.45;;;;;;;;;;4926052;29;20156;-81
2021/08/13 10:11:33;;;;;;;11.80;6.38;;;;;;;;;;4931533;29;20513;-80
2021/08/13 10:14:00;;;;;;;9.77;6.53;;;;;;;;;;4931805;29;20047;-81
2021/08/13 10:16:28;;;;;;;9.68;5.93;;;;;;;;;;4923440;29;20139;-81
2021/08/13 10:18:56;;;;;;;9.23;6.57;;;;;;;;;;4924615;29;20062;-81
2021/08/13 10:21:24;;;;;;;11.20;6.45;;;;;;;;;;4932650;29;20058;-81
2021/08/13 10:23:52;;;;;;;9.88;6.43;;;;;;;;;;4932304;29;20216;-79
2021/08/13 10:26:22;;;;;;;10.52;6.43;;;;;;;;;;4932965;29;20646;-80
2021/08/13 10:28:50;;;;;;;10.60;6.65;;;;;;;;;;4931391;29;20059;-80
2021/08/13 10:31:18;;;;;;;10.32;6.40;;;;;;;;;;4945666;28;20142;-80
2021/08/13 10:33:46;;;;;;;10.52;7.90;;;;;;;;;;4924670;29;20110;-81
2021/08/13 10:36:18;;;;;;;14.50;6.45;;;;;;;;;;4931596;29;20143;-81
2021/08/13 10:38:50;;;;;;;16.40;7.40;;;;;;;;;;4930796;29;20090;-80
2021/08/13 10:41:19;;;;;;;9.25;6.57;;;;;;;;;;4929417;29;20181;-80
2021/08/13 10:43:46;;;;;;;25.27;8.05;;;;;;;;;;4930159;29;20075;-80
2021/08/13 10:46:14;;;;;;;15.77;7.70;;;;;;;;;;4923503;29;20075;-80
2021/08/13 10:48:43;;;;;;;14.52;7.32;;;;;;;;;;4919056;29;20054;-80
2021/08/13 10:51:11;;;;;;;15.02;7.28;;;;;;;;;;4924813;29;20135;-80
2021/08/13 10:53:38;;;;;;;10.52;6.38;;;;;;;;;;4925119;29;20135;-80
2021/08/13 10:56:08;;;;;;;12.98;7.05;;;;;;;;;;4934741;29;20055;-81
2021/08/13 10:58:42;;;;;;;9.73;6.32;;;;;;;;;;4925661;29;20079;-80
2021/08/13 11:01:10;;;;;;;15.30;6.80;;;;;;;;;;4925973;29;20131;-80
2021/08/13 11:03:39;;;;;;;11.77;5.88;;;;;;;;;;4923238;29;20075;-80
2021/08/13 11:06:06;;;;;;;9.55;5.70;;;;;;;;;;4931548;29;20047;-80
2021/08/13 11:08:39;;;;;;;8.43;6.57;;;;;;;;;;4927968;29;20426;-80
2021/08/13 11:11:10;;;;;;;11.93;6.45;;;;;;;;;;4925586;29;20095;-80
2021/08/13 11:13:41;;;;;;;12.70;6.18;;;;;;;;;;4919177;29;20063;-80
2021/08/13 11:16:26;;;;;;;12.45;6.40;;;;;;;;;;4932009;29;20704;-80
2021/08/13 11:18:57;;;;;;;11.98;5.90;;;;;;;;;;4921592;29;20479;-81
2021/08/13 11:21:32;;;;;;;13.05;6.53;;;;;;;;;;4931404;29;20127;-80
2021/08/13 11:24:00;;;;;;;9.02;6.68;;;;;;;;;;4930934;29;20461;-80
2021/08/13 11:26:45;;;;;;;11.18;7.22;;;;;;;;;;4931451;29;20126;-80
2021/08/13 11:29:34;;;;;;;16.27;7.60;;;;;;;;;;4930786;29;20134;-80
2021/08/13 11:32:02;;;;;;;15.32;7.10;;;;;;;;;;4930336;29;20067;-80
2021/08/13 11:35:01;;;;;;;15.88;7.70;;;;;;;;;;4931154;29;20062;-80
2021/08/13 11:37:28;;;;;;;11.05;7.40;;;;;;;;;;4905069;29;20682;-80
2021/08/13 11:39:55;;;;;;;14.70;7.45;;;;;;;;;;4931725;29;20062;-80
2021/08/13 11:42:23;;;;;;;10.25;7.43;;;;;;;;;;4929005;29;20110;-79
2021/08/13 11:44:53;;;;;;;12.60;7.00;;;;;;;;;;4931427;29;20114;-80
2021/08/13 11:47:22;;;;;;;11.55;6.82;;;;;;;;;;4914999;29;20123;-82
2021/08/13 11:49:49;;;;;;;13.07;7.78;;;;;;;;;;4919533;29;20110;-78
2021/08/13 11:52:20;;;;;;;9.90;6.70;;;;;;;;;;4921549;29;20130;-79
2021/08/13 11:54:49;;;;;;;12.70;7.15;;;;;;;;;;4942159;29;20083;-80
2021/08/13 11:57:23;;;;;;;35.85;9.80;;;;;;;;;;4930418;29;20163;-78
2021/08/13 11:59:51;;;;;;;44.05;9.70;;;;;;;;;;4929833;29;20160;-79
2021/08/13 12:02:28;;;;;;;70.55;12.40;;;;;;;;;;4931214;29;20084;-80
2021/08/13 12:05:04;;;;;;;12.40;7.28;;;;;;;;;;4931716;29;20051;-81
2021/08/13 12:07:31;;;;;;;11.50;6.65;;;;;;;;;;4929387;29;20784;-79
2021/08/13 12:09:58;;;;;;;10.45;6.55;;;;;;;;;;4930349;29;20052;-80
2021/08/13 12:12:29;;;;;;;10.57;6.68;;;;;;;;;;4930047;29;20147;-79
2021/08/13 12:14:57;;;;;;;8.23;6.32;;;;;;;;;;4924528;29;20111;-79
2021/08/13 12:17:25;;;;;;;11.45;7.32;;;;;;;;;;4926360;29;20059;-81
2021/08/13 12:19:56;;;;;;;16.42;7.28;;;;;;;;;;4937783;29;20055;-82
2021/08/13 12:22:31;;;;;;;9.25;6.72;;;;;;;;;;4931903;29;20102;-80
2021/08/13 12:24:58;;;;;;;10.93;6.90;;;;;;;;;;4931312;29;20052;-80
2021/08/13 12:27:30;;;;;;;16.88;7.72;;;;;;;;;;4928809;29;20103;-81
2021/08/13 12:29:57;;;;;;;8.65;6.90;;;;;;;;;;4931955;29;20048;-80
2021/08/13 12:32:37;;;;;;;10.95;6.95;;;;;;;;;;4932929;29;20082;-82
2021/08/13 12:35:05;;;;;;;10.73;7.18;;;;;;;;;;4933017;29;20070;-80
2021/08/13 12:37:32;;;;;;;9.27;6.55;;;;;;;;;;4938192;29;20083;-81
2021/08/13 12:40:00;;;;;;;9.43;6.85;;;;;;;;;;4921996;29;20090;-83
2021/08/13 12:42:28;;;;;;;13.77;6.80;;;;;;;;;;4936022;29;20048;-82
2021/08/13 12:44:56;;;;;;;10.75;7.03;;;;;;;;;;4918164;29;20166;-83
2021/08/13 12:47:23;;;;;;;10.98;6.72;;;;;;;;;;4923045;29;20143;-82
2021/08/13 12:49:51;;;;;;;16.83;6.70;;;;;;;;;;4921310;29;20082;-83
2021/08/13 12:52:19;;;;;;;10.02;6.80;;;;;;;;;;4935706;29;20742;-84
2021/08/13 12:54:48;;;;;;;11.18;6.43;;;;;;;;;;4933660;29;20094;-86
2021/08/13 12:57:15;;;;;;;12.27;6.68;;;;;;;;;;4934729;29;20060;-81
2021/08/13 12:59:45;;;;;;;17.92;6.60;;;;;;;;;;4928391;29;20622;-81
2021/08/13 13:02:28;;;;;;;12.23;6.93;;;;;;;;;;4936395;29;20493;-83
2021/08/13 13:05:01;;;;;;;9.70;6.47;;;;;;;;;;4939129;29;20052;-82
2021/08/13 13:07:35;;;;;;;17.02;7.32;;;;;;;;;;4940955;29;20052;-82
2021/08/13 13:10:13;;;;;;;13.17;7.70;;;;;;;;;;4940416;29;20776;-83
2021/08/13 13:12:40;;;;;;;9.82;7.25;;;;;;;;;;4921443;29;20109;-82
2021/08/13 13:15:30;;;;;;;13.82;7.20;;;;;;;;;;4940531;29;20055;-83
2021/08/13 13:18:02;;;;;;;10.77;7.18;;;;;;;;;;4939276;29;20052;-83
2021/08/13 13:20:36;;;;;;;14.13;6.70;;;;;;;;;;4940387;29;20420;-82
2021/08/13 13:23:20;;;;;;;9.40;6.70;;;;;;;;;;4939731;29;20682;-82
2021/08/13 13:25:49;;;;;;;11.98;7.10;;;;;;;;;;4926955;29;20043;-83
2021/08/13 13:28:29;;;;;;;11.68;7.40;;;;;;;;;;4940153;29;20153;-83
2021/08/13 13:31:08;;;;;;;10.07;6.75;;;;;;;;;;4940640;29;20067;-83
2021/08/13 13:33:38;;;;;;;9.43;6.50;;;;;;;;;;4918757;29;20514;-82
2021/08/13 13:36:06;;;;;;;11.32;6.75;;;;;;;;;;4940595;29;20134;-83
2021/08/13 13:38:34;;;;;;;14.30;6.88;;;;;;;;;;4940406;29;20507;-83
2021/08/13 13:41:02;;;;;;;13.30;7.15;;;;;;;;;;4940330;29;20667;-82
2021/08/13 13:43:29;;;;;;;10.35;6.30;;;;;;;;;;4939945;29;20051;-82
2021/08/13 13:45:59;;;;;;;11.57;6.82;;;;;;;;;;4939853;29;20520;-82
2021/08/13 13:48:29;;;;;;;11.45;6.18;;;;;;;;;;4937455;29;20122;-82
2021/08/13 13:50:56;;;;;;;11.98;6.88;;;;;;;;;;4924922;29;20654;-85
2021/08/13 13:53:23;;;;;;;10.18;6.85;;;;;;;;;;4951395;29;20055;-82
2021/08/13 13:55:51;;;;;;;12.32;5.82;;;;;;;;;;4915581;29;20559;-83
2021/08/13 13:58:18;;;;;;;10.43;7.18;;;;;;;;;;4916830;29;20126;-84
2021/08/13 14:00:45;;;;;;;9.40;6.25;;;;;;;;;;4936967;29;20118;-83
2021/08/13 14:03:13;;;;;;;10.77;7.22;;;;;;;;;;4934692;29;20054;-83
2021/08/13 14:05:40;;;;;;;12.15;6.22;;;;;;;;;;4936995;29;20127;-83
2021/08/13 14:08:09;;;;;;;10.65;6.93;;;;;;;;;;4936799;29;20465;-83
2021/08/13 14:10:38;;;;;;;16.98;7.00;;;;;;;;;;4936763;29;20076;-84
2021/08/13 14:13:06;;;;;;;14.90;7.03;;;;;;;;;;4936547;29;20115;-83
2021/08/13 14:15:36;;;;;;;10.07;6.25;;;;;;;;;;4936712;29;20642;-85
2021/08/13 14:18:04;;;;;;;10.02;6.70;;;;;;;;;;4919243;29;20757;-83
2021/08/13 14:20:31;;;;;;;17.65;7.05;;;;;;;;;;4936042;29;20083;-86
2021/08/13 14:23:00;;;;;;;9.90;6.15;;;;;;;;;;4951542;29;20058;-82
2021/08/13 14:25:28;;;;;;;12.43;6.60;;;;;;;;;;4936683;29;20409;-86
2021/08/13 14:27:57;;;;;;;7.63;5.88;;;;;;;;;;4934571;29;20135;-82
2021/08/13 14:30:26;;;;;;;9.35;6.45;;;;;;;;;;4933199;29;20098;-82
2021/08/13 14:32:55;;;;;;;16.20;8.20;;;;;;;;;;4928660;29;20064;-82
2021/08/13 14:35:24;;;;;;;13.13;7.22;;;;;;;;;;4934034;29;20151;-81
2021/08/13 14:37:53;;;;;;;11.10;7.15;;;;;;;;;;4935219;29;20079;-83